Aviation Digital Data Service (ADDS)

Output produced by METARs form (0735 UTC 07 April 2020)
found at http://www.aviationweather.gov/metar/data/
 
METAR text: WSSL 070700Z VRB03KT 9999 FEW016 FEW020TCU BKN350 31/23 Q1009
Conditions at: WSSL (SINGAPORE/SELETA, SG) observed 0700 UTC 07 April 2020
Temperature: 31.0°C (88°F)
Dewpoint: 23.0°C (73°F) [RH = 63%]
Pressure (altimeter): 29.79 inches Hg (1009.0 mb)
Winds: variable direction winds at 3 MPH (3 knots; 1.5 m/s)
Visibility: 6 or more miles (10+ km)
Ceiling: 35000 feet AGL
Clouds: few clouds at 1600 feet AGL
few clouds at 2000 feet AGL
broken clouds at 35000 feet AGL
Weather: no significant weather observed at this time

Forecast for: WSSL (SINGAPORE/SELETA, SG)
Text: TAF WSSL 070500Z 0706/0812 01007KT 9999 FEW015 SCT020
Forecast period: 0600 UTC 07 April 2020 to 1200 UTC 08 April 2020
Forecast type: FROM: standard forecast or significant change
Winds: from the N (10 degrees) at 8 MPH (7 knots; 3.6 m/s)
Visibility: 6 or more miles 10+ km)
Ceiling: at least 12,000 feet AGL
Clouds: few clouds at 1500 feet AGL
scattered clouds at 2000 feet AGL
Weather: no significant weather forecast for this period